Airfield :
LOGIN :

Register | Disclaimer

   EN    FR    IT 

 










Legend :    VFR   Marginal VFR   IFR   Intensive IFR   Very Intensive IFR
Visi :
Ceiling :
>= 8 km
>= 3000ft
5 to 8 km
1000 to 3000 ft
1500m to 5 km
500 to 1000 ft
800 to 1500m
200 to 500 ft
< 800m
< 200 ft
Symbols :   Thunderstorms  Fog  Heavy snow  Heavy precipitations  Wind > 20 kt
SIGMETs :     Misc.  Thunderstorms  Icing  Turbulence  Mountain Waves  Volcanic Ashes







- Airport Elevation : 278 ft
- IATA code : RJK


LDRI - Rijeka

CURRENT METAR :
  • 260000Z 05004KT 040V120 CAVOK 25/17 Q1017

EXPIRED METARs :
  • 252330Z 05004KT CAVOK 25/17 Q1017
  • 252300Z VRB02KT CAVOK 25/18 Q1017
  • 252230Z 07005KT CAVOK 26/17 Q1017
  • 252200Z 04005KT CAVOK 26/17 Q1017
  • 252130Z 05004KT 030V140 CAVOK 26/17 Q1018

TAF TAF LDRI
Valid from the 26 at 00:00 until the 27 at 00:00 UTC


252325Z 2600/2700 06006KT CAVOK TX30/2611Z TN24/2601Z
No reported NOTAMs for that airfield.



MET'MAP, your aeronautical weather chart ! - Copyright ORBIFLY December 2007 - Disclaimer

ORBIFLY MET'MAP TEAM :

Programming & Development : Alexandra Zaïnal
Concept & Development : Baudouin d'Aumeries
Co-Development & Prog : Marc-Olivier Méhu
Technical & hardware support : Manuel Goepfert

Contact : metmap@orbifly.com




SOURCES & CREDITS :

   NOAA